Time;durP1;ratioP1;P1;durP2;ratioP2;P2;SDS_P1;SDS_P2;PMS_P1;PMS_P2;Temp;Humidity;BMP_temperature;BMP_pressure;BME280_temperature;BME280_humidity;BME280_pressure;Samples;Min_cycle;Max_cycle;Signal;HPM_P1;HPM_P2
2023/06/03 00:02:04;;;;;;;3.17;2.15;;;;;;;10.90;52.84;100193.56;5055171;28;20045;-75
2023/06/03 00:04:29;;;;;;;4.28;2.17;;;;;;;10.89;52.82;100197.09;5054457;28;20388;-75
2023/06/03 00:06:56;;;;;;;3.17;1.70;;;;;;;10.76;53.20;100193.25;5054709;28;20036;-75
2023/06/03 00:09:21;;;;;;;3.67;1.83;;;;;;;10.63;53.38;100166.84;5054318;28;20028;-75
2023/06/03 00:11:46;;;;;;;3.38;1.83;;;;;;;10.68;53.42;100174.47;5054509;28;20021;-76
2023/06/03 00:14:12;;;;;;;4.95;2.13;;;;;;;10.67;53.51;100173.63;5054017;28;20025;-75
2023/06/03 00:16:37;;;;;;;3.25;2.35;;;;;;;10.80;53.66;100194.00;5054366;28;20036;-75
2023/06/03 00:19:03;;;;;;;5.60;2.13;;;;;;;10.68;53.71;100190.94;5054531;28;20491;-75
2023/06/03 00:21:28;;;;;;;7.60;2.22;;;;;;;10.49;53.95;100177.78;5054241;28;20032;-75
2023/06/03 00:23:54;;;;;;;3.30;2.20;;;;;;;10.66;53.91;100205.81;5054216;28;20029;-75
2023/06/03 00:26:21;;;;;;;6.00;2.30;;;;;;;10.75;53.67;100196.78;5053715;28;20029;-75
2023/06/03 00:28:48;;;;;;;3.50;2.25;;;;;;;10.73;53.74;100209.00;5053976;28;20025;-75
2023/06/03 00:31:13;;;;;;;3.95;1.65;;;;;;;10.58;53.90;100176.59;5053584;28;20040;-75
2023/06/03 00:33:38;;;;;;;3.35;2.03;;;;;;;10.55;54.25;100201.91;5053735;28;20045;-75
2023/06/03 00:36:04;;;;;;;5.45;1.80;;;;;;;10.35;54.41;100187.00;5053961;28;20550;-75
2023/06/03 00:38:29;;;;;;;4.93;2.20;;;;;;;10.40;54.68;100213.72;5053549;28;20044;-75
2023/06/03 00:40:55;;;;;;;4.88;2.10;;;;;;;10.47;54.75;100226.47;5054001;28;20119;-75
2023/06/03 00:43:20;;;;;;;3.88;2.35;;;;;;;10.24;54.94;100203.88;5052938;28;20032;-75
2023/06/03 00:45:45;;;;;;;6.43;2.53;;;;;;;10.10;55.25;100185.25;5053736;28;20029;-75
2023/06/03 00:48:11;;;;;;;2.95;2.20;;;;;;;10.10;55.38;100198.28;5054106;28;20035;-75
2023/06/03 00:50:39;;;;;;;4.18;2.25;;;;;;;10.22;55.37;100226.47;5053649;28;20066;-75
2023/06/03 00:53:05;;;;;;;3.67;2.05;;;;;;;10.14;55.58;100210.28;5053583;28;20132;-74
2023/06/03 00:55:31;;;;;;;4.68;2.25;;;;;;;10.21;55.70;100239.56;5053323;28;20468;-75
2023/06/03 00:57:56;;;;;;;4.45;1.90;;;;;;;10.14;55.94;100236.31;5053380;28;20028;-75
2023/06/03 01:00:22;;;;;;;4.05;2.50;;;;;;;10.02;55.80;100215.06;5053600;28;20350;-75
2023/06/03 01:02:47;;;;;;;4.15;2.45;;;;;;;10.04;56.12;100236.69;5053550;28;20025;-75
2023/06/03 01:05:14;;;;;;;4.63;2.42;;;;;;;10.02;56.04;100228.09;5053541;28;20415;-75
2023/06/03 01:07:50;;;;;;;4.88;2.22;;;;;;;10.02;56.24;100235.88;5053268;28;20052;-75
2023/06/03 01:10:38;;;;;;;5.68;2.90;;;;;;;9.89;56.55;100233.72;5053074;28;20049;-75
2023/06/03 01:13:10;;;;;;;4.38;2.67;;;;;;;9.73;56.61;100215.19;5053483;28;20036;-76
2023/06/03 01:15:40;;;;;;;5.47;2.45;;;;;;;9.84;56.68;100226.97;5053069;28;20480;-75
2023/06/03 01:18:06;;;;;;;4.72;2.20;;;;;;;9.74;56.91;100235.09;5053319;28;20029;-75
2023/06/03 01:20:32;;;;;;;4.50;3.08;;;;;;;9.77;56.98;100228.91;5052765;28;20056;-75
2023/06/03 01:23:21;;;;;;;5.85;2.63;;;;;;;9.81;57.14;100238.31;5052915;28;20033;-75
2023/06/03 01:25:50;;;;;;;4.25;2.17;;;;;;;9.69;57.24;100225.72;5053009;28;20025;-75
2023/06/03 01:28:16;;;;;;;3.50;2.55;;;;;;;9.64;57.53;100235.44;5052686;28;20634;-75
2023/06/03 01:30:41;;;;;;;4.53;2.45;;;;;;;9.52;57.71;100218.50;5052923;28;20067;-75
2023/06/03 01:33:07;;;;;;;3.08;2.30;;;;;;;9.42;58.20;100230.94;5052933;28;20049;-75
2023/06/03 01:35:33;;;;;;;3.85;2.60;;;;;;;9.54;58.10;100252.25;5050353;28;20044;-75
2023/06/03 01:37:58;;;;;;;14.70;2.78;;;;;;;9.27;58.36;100215.00;5053012;28;20538;-75
2023/06/03 01:40:24;;;;;;;4.90;2.65;;;;;;;9.47;58.34;100249.00;5052477;28;20512;-75
2023/06/03 01:42:49;;;;;;;3.20;2.15;;;;;;;9.44;58.89;100246.53;5052638;28;20036;-75
2023/06/03 01:45:15;;;;;;;6.35;2.20;;;;;;;9.16;59.08;100231.78;5052595;28;20163;-75
2023/06/03 01:47:40;;;;;;;4.95;2.13;;;;;;;9.22;59.39;100246.34;5052494;28;20029;-75
2023/06/03 01:50:06;;;;;;;5.90;2.30;;;;;;;9.18;59.45;100263.78;5052407;28;20103;-75
2023/06/03 01:52:31;;;;;;;5.50;3.00;;;;;;;9.12;59.66;100257.94;5052250;28;20029;-75
2023/06/03 01:54:57;;;;;;;3.15;2.28;;;;;;;8.94;60.05;100231.63;5051639;28;20029;-75
2023/06/03 01:57:22;;;;;;;11.77;2.40;;;;;;;9.10;59.85;100255.38;5052130;28;20036;-75
2023/06/03 01:59:47;;;;;;;6.57;2.38;;;;;;;9.08;60.36;100264.13;5052460;28;20074;-75
2023/06/03 02:02:13;;;;;;;4.88;2.33;;;;;;;8.85;60.29;100233.63;5052478;28;20036;-75
2023/06/03 02:04:38;;;;;;;2.78;2.20;;;;;;;9.05;60.51;100272.84;5052105;28;20444;-75
2023/06/03 02:07:04;;;;;;;4.00;2.42;;;;;;;9.00;60.68;100266.94;5052196;28;20037;-75
2023/06/03 02:09:30;;;;;;;6.45;2.28;;;;;;;8.81;60.83;100245.88;5052077;28;20017;-75
2023/06/03 02:11:59;;;;;;;4.13;2.13;;;;;;;8.72;60.85;100221.03;5052353;28;20661;-75
2023/06/03 02:14:26;;;;;;;4.03;2.00;;;;;;;8.97;61.09;100267.03;5051965;28;20057;-75
2023/06/03 02:16:53;;;;;;;6.40;2.50;;;;;;;9.00;61.16;100269.53;5051957;28;20033;-75
2023/06/03 02:19:20;;;;;;;5.15;2.97;;;;;;;8.86;61.09;100254.38;5051855;28;20492;-75
2023/06/03 02:21:47;;;;;;;5.15;2.30;;;;;;;8.92;61.38;100284.50;5051973;28;20037;-75
2023/06/03 02:24:16;;;;;;;4.72;2.38;;;;;;;8.86;61.81;100280.34;5051933;28;20116;-75
2023/06/03 02:26:50;;;;;;;5.97;2.30;;;;;;;8.85;61.75;100272.59;5051904;28;20098;-75
2023/06/03 02:29:20;;;;;;;6.13;2.30;;;;;;;8.80;61.81;100274.47;5052021;28;20476;-75
2023/06/03 02:31:46;;;;;;;2.50;2.08;;;;;;;8.64;61.95;100248.13;5051687;28;20526;-74
2023/06/03 02:34:12;;;;;;;6.40;2.38;;;;;;;8.77;62.30;100279.78;5051925;28;20056;-75
2023/06/03 02:36:40;;;;;;;6.72;2.78;;;;;;;8.63;62.18;100265.41;5051747;28;20025;-75
2023/06/03 02:39:07;;;;;;;6.50;2.53;;;;;;;8.61;62.08;100261.19;5051560;28;20029;-75
2023/06/03 02:41:33;;;;;;;4.28;2.20;;;;;;;8.61;62.49;100279.38;5051588;28;20365;-75
2023/06/03 02:43:58;;;;;;;6.20;2.58;;;;;;;8.58;62.49;100272.50;5051827;28;20040;-75
2023/06/03 02:46:23;;;;;;;3.63;2.42;;;;;;;8.49;62.96;100254.59;5051283;28;20021;-75
2023/06/03 02:48:49;;;;;;;4.80;2.78;;;;;;;8.45;63.00;100253.81;5052219;28;20123;-75
2023/06/03 02:51:14;;;;;;;4.78;2.83;;;;;;;8.59;62.60;100273.34;5051628;28;20100;-75
2023/06/03 02:53:39;;;;;;;5.78;2.83;;;;;;;8.37;62.80;100258.38;5051550;28;20494;-75
2023/06/03 02:56:05;;;;;;;5.03;3.03;;;;;;;8.63;63.16;100283.59;5051645;28;20025;-75
2023/06/03 02:58:30;;;;;;;5.43;2.58;;;;;;;8.39;63.23;100256.59;5051470;28;20029;-75
2023/06/03 03:00:55;;;;;;;8.13;3.20;;;;;;;8.30;63.33;100233.47;5051442;28;20025;-75
2023/06/03 03:03:21;;;;;;;6.25;2.90;;;;;;;8.32;63.26;100254.19;5051304;28;20060;-75
2023/06/03 03:05:48;;;;;;;3.75;2.45;;;;;;;8.48;63.57;100292.69;5051717;28;20032;-75
2023/06/03 03:08:13;;;;;;;6.45;2.72;;;;;;;8.30;63.88;100267.22;5055633;28;20536;-75
2023/06/03 03:10:39;;;;;;;5.18;3.33;;;;;;;8.36;63.92;100282.59;5055234;28;20100;-75
2023/06/03 03:13:04;;;;;;;8.00;3.55;;;;;;;8.28;64.21;100273.31;5055705;28;20028;-75
2023/06/03 03:15:29;;;;;;;5.78;3.05;;;;;;;8.17;64.48;100273.59;5055028;28;20036;-75
2023/06/03 03:17:54;;;;;;;7.25;4.32;;;;;;;8.19;64.58;100272.69;5055691;28;20104;-75
2023/06/03 03:20:20;;;;;;;6.05;3.05;;;;;;;8.34;65.13;100305.13;5055592;28;20025;-75
2023/06/03 03:22:45;;;;;;;5.95;3.25;;;;;;;8.17;64.88;100268.41;5055335;28;20032;-75
2023/06/03 03:25:11;;;;;;;6.10;3.00;;;;;;;8.15;65.57;100278.84;5055310;28;20469;-75
2023/06/03 03:27:36;;;;;;;4.43;2.80;;;;;;;8.13;65.49;100272.84;5054870;28;20108;-75
2023/06/03 03:30:03;;;;;;;5.65;2.97;;;;;;;8.08;65.90;100274.69;5054995;28;20127;-75
2023/06/03 03:32:28;;;;;;;4.65;2.55;;;;;;;8.30;66.07;100302.66;5054902;28;20033;-75
2023/06/03 03:35:15;;;;;;;4.40;2.70;;;;;;;8.33;65.69;100300.84;5053902;28;20032;-75
2023/06/03 03:37:40;;;;;;;5.95;2.53;;;;;;;8.22;65.86;100282.13;5054834;28;20017;-75
2023/06/03 03:40:12;;;;;;;5.75;3.08;;;;;;;8.31;66.01;100289.66;5054994;28;20033;-75
2023/06/03 03:42:38;;;;;;;7.57;2.92;;;;;;;8.43;66.17;100304.09;5054789;28;20468;-75
2023/06/03 03:45:14;;;;;;;7.03;2.75;;;;;;;8.49;66.17;100309.97;5055182;28;20037;-75
2023/06/03 03:47:39;;;;;;;4.22;2.47;;;;;;;8.54;65.99;100319.38;5054797;28;20025;-75
2023/06/03 03:50:13;;;;;;;5.68;2.70;;;;;;;8.53;66.40;100315.06;5054966;28;20032;-76
2023/06/03 03:52:38;;;;;;;6.93;2.92;;;;;;;8.65;65.85;100302.59;5054551;28;20129;-75
2023/06/03 03:55:04;;;;;;;6.63;2.47;;;;;;;8.95;65.03;100302.59;5054554;28;20025;-75
2023/06/03 03:57:31;;;;;;;4.85;2.70;;;;;;;9.06;64.86;100313.53;5054697;28;20481;-75
2023/06/03 03:59:57;;;;;;;8.07;3.05;;;;;;;9.16;64.57;100325.34;5054908;28;20036;-75
2023/06/03 04:02:22;;;;;;;4.85;2.58;;;;;;;9.19;64.44;100314.03;5054713;28;20017;-75
2023/06/03 04:04:47;;;;;;;4.70;2.88;;;;;;;9.14;64.68;100305.50;5054690;28;20500;-75
2023/06/03 04:07:17;;;;;;;7.70;3.25;;;;;;;9.37;64.62;100323.84;5054649;28;20049;-75
2023/06/03 04:09:43;;;;;;;4.43;2.75;;;;;;;9.70;64.00;100308.94;5054279;28;20060;-75
2023/06/03 04:12:29;;;;;;;5.53;2.60;;;;;;;10.48;61.88;100313.25;5054928;28;20060;-76
2023/06/03 04:14:57;;;;;;;6.13;2.92;;;;;;;11.65;59.44;100302.69;5054571;28;20036;-75
2023/06/03 04:17:25;;;;;;;5.90;3.20;;;;;;;13.59;54.91;100318.56;5054224;28;20083;-75
2023/06/03 04:19:52;;;;;;;6.13;2.85;;;;;;;15.11;51.61;100315.06;5053707;28;20025;-75
2023/06/03 04:22:22;;;;;;;4.13;2.88;;;;;;;15.63;50.24;100301.69;5054338;28;20052;-75
2023/06/03 04:24:57;;;;;;;7.07;3.03;;;;;;;15.30;50.17;100320.16;5051988;28;20123;-76
2023/06/03 04:27:23;;;;;;;4.90;2.83;;;;;;;14.84;51.26;100314.81;5054362;28;20468;-76
2023/06/03 04:29:49;;;;;;;4.65;3.10;;;;;;;14.64;52.06;100334.22;5053908;28;20029;-76
2023/06/03 04:32:15;;;;;;;5.70;2.83;;;;;;;14.61;52.10;100334.38;5054087;28;20028;-75
2023/06/03 04:34:54;;;;;;;5.13;3.00;;;;;;;14.78;51.58;100337.88;5053277;28;20048;-76
2023/06/03 04:37:20;;;;;;;5.07;2.92;;;;;;;15.09;51.18;100334.47;5053935;28;20037;-76
2023/06/03 04:39:46;;;;;;;3.40;2.50;;;;;;;16.38;48.67;100331.44;5053904;28;20100;-75
2023/06/03 04:42:12;;;;;;;4.78;3.05;;;;;;;17.88;46.52;100321.22;5054056;28;20120;-76
2023/06/03 04:44:41;;;;;;;5.15;2.53;;;;;;;18.62;44.89;100325.81;5053498;28;20029;-75
2023/06/03 04:47:10;;;;;;;6.90;3.05;;;;;;;18.51;44.50;100311.69;5053544;28;20036;-76
2023/06/03 04:49:39;;;;;;;5.28;2.85;;;;;;;17.64;45.99;100321.00;5053294;28;20036;-76
2023/06/03 04:52:09;;;;;;;6.65;3.53;;;;;;;16.90;47.39;100332.75;5053721;28;20021;-75
2023/06/03 04:54:36;;;;;;;6.00;3.00;;;;;;;16.39;48.50;100327.91;5053138;28;20469;-76
2023/06/03 04:57:01;;;;;;;6.47;3.13;;;;;;;16.32;48.82;100321.31;5051470;28;20041;-76
2023/06/03 04:59:27;;;;;;;4.30;2.42;;;;;;;16.41;48.34;100333.91;5053609;28;20029;-76
2023/06/03 05:01:52;;;;;;;4.43;2.95;;;;;;;17.03;48.22;100340.72;5051716;28;20117;-75
2023/06/03 05:04:19;;;;;;;5.07;2.75;;;;;;;18.68;45.35;100329.84;5053279;28;20041;-76
2023/06/03 05:06:46;;;;;;;5.13;3.10;;;;;;;19.88;43.44;100327.41;5052906;28;20568;-76
2023/06/03 05:09:12;;;;;;;4.22;2.85;;;;;;;20.18;43.20;100330.41;5053306;28;20076;-75
2023/06/03 05:11:38;;;;;;;3.45;2.65;;;;;;;19.55;43.52;100331.56;5053129;28;20025;-76
2023/06/03 05:14:03;;;;;;;3.63;2.55;;;;;;;18.80;44.51;100322.91;5053123;28;20035;-76
2023/06/03 05:16:28;;;;;;;5.65;2.90;;;;;;;18.22;45.58;100324.25;5052825;28;20071;-76
2023/06/03 05:18:54;;;;;;;5.97;3.15;;;;;;;18.23;46.43;100347.00;5053361;28;20056;-76
2023/06/03 05:21:19;;;;;;;4.22;2.75;;;;;;;18.23;46.51;100324.13;5053131;28;20060;-76
2023/06/03 05:23:45;;;;;;;5.85;3.00;;;;;;;19.16;45.18;100338.75;5052776;28;20457;-76
2023/06/03 05:26:11;;;;;;;5.25;3.10;;;;;;;20.22;43.12;100320.41;5053132;28;20479;-76
2023/06/03 05:28:36;;;;;;;4.60;3.20;;;;;;;20.98;41.88;100340.13;5052954;28;20037;-75
2023/06/03 05:31:02;;;;;;;5.95;3.15;;;;;;;20.83;41.83;100342.19;5051545;28;20053;-75
2023/06/03 05:33:31;;;;;;;7.15;3.08;;;;;;;20.11;43.15;100338.91;5052634;28;20086;-76
2023/06/03 05:35:57;;;;;;;3.22;2.80;;;;;;;19.47;43.70;100344.50;5052964;28;20025;-75
2023/06/03 05:38:22;;;;;;;3.78;2.80;;;;;;;19.33;44.35;100328.78;5052756;28;20032;-75
2023/06/03 05:40:50;;;;;;;4.80;3.40;;;;;;;19.22;44.46;100331.38;5052327;28;20029;-75
2023/06/03 05:43:15;;;;;;;3.50;2.97;;;;;;;19.62;44.06;100351.31;5052525;28;20481;-75
2023/06/03 05:45:42;;;;;;;5.13;3.20;;;;;;;20.04;43.59;100327.94;5052387;28;20033;-75
2023/06/03 05:48:07;;;;;;;3.55;3.10;;;;;;;20.73;42.77;100341.25;5052788;28;20037;-75
2023/06/03 05:50:36;;;;;;;4.13;3.25;;;;;;;21.43;41.54;100335.63;5052609;28;20029;-75
2023/06/03 05:53:01;;;;;;;3.60;2.53;;;;;;;21.46;42.02;100342.50;5052615;28;20456;-75
2023/06/03 05:55:27;;;;;;;3.88;2.88;;;;;;;20.90;42.33;100354.00;5052478;28;20113;-75
2023/06/03 05:57:52;;;;;;;6.38;3.05;;;;;;;20.29;42.83;100337.50;5052127;28;20029;-75
2023/06/03 06:00:17;;;;;;;3.85;3.03;;;;;;;20.34;43.08;100330.06;5052594;28;20546;-76
2023/06/03 06:02:43;;;;;;;4.72;2.95;;;;;;;20.94;42.25;100338.69;5052166;28;20465;-75
2023/06/03 06:05:09;;;;;;;4.93;3.10;;;;;;;21.70;40.92;100357.38;5050962;28;20424;-75
2023/06/03 06:07:34;;;;;;;4.10;2.83;;;;;;;23.10;39.19;100341.97;5052189;28;20021;-75
2023/06/03 06:10:00;;;;;;;3.40;2.78;;;;;;;23.89;38.05;100333.97;5052318;28;20029;-75
2023/06/03 06:12:25;;;;;;;5.03;2.50;;;;;;;25.09;36.76;100363.63;5052260;28;20036;-75
2023/06/03 06:14:50;;;;;;;5.65;2.72;;;;;;;25.27;36.44;100347.66;5051732;28;20075;-75
2023/06/03 06:17:16;;;;;;;5.95;2.75;;;;;;;25.59;36.24;100358.69;5052185;28;20400;-75
2023/06/03 06:19:42;;;;;;;7.55;3.10;;;;;;;25.44;36.19;100362.84;5052130;28;20035;-75
2023/06/03 06:22:08;;;;;;;3.80;2.42;;;;;;;24.29;36.64;100370.25;5052248;28;20037;-75
2023/06/03 06:24:33;;;;;;;4.40;2.90;;;;;;;23.99;37.38;100342.81;5051882;28;20086;-75
2023/06/03 06:26:58;;;;;;;4.45;2.47;;;;;;;25.05;36.57;100341.72;5052119;28;20029;-81
2023/06/03 06:29:25;;;;;;;3.30;2.58;;;;;;;26.27;35.35;100351.97;5051941;28;20032;-75
2023/06/03 06:31:51;;;;;;;3.90;2.45;;;;;;;27.95;34.51;100341.53;5051743;28;20040;-75
2023/06/03 06:34:17;;;;;;;4.10;2.50;;;;;;;29.13;32.53;100347.19;5051740;28;20056;-76
2023/06/03 06:36:49;;;;;;;2.50;2.08;;;;;;;30.19;31.02;100338.44;5051383;28;20501;-75
2023/06/03 06:39:33;;;;;;;3.95;2.40;;;;;;;31.08;30.70;100362.72;5051655;28;20035;-76
2023/06/03 06:42:26;;;;;;;3.83;2.78;;;;;;;31.75;29.64;100366.00;5051223;28;20416;-76
2023/06/03 06:44:51;;;;;;;5.97;2.45;;;;;;;32.19;28.89;100348.78;5051788;28;20025;-75
2023/06/03 06:47:24;;;;;;;2.40;2.20;;;;;;;32.70;29.32;100348.56;5051846;28;20033;-76
2023/06/03 06:49:51;;;;;;;5.22;2.53;;;;;;;33.26;28.59;100355.72;5051631;28;20029;-75
2023/06/03 06:52:19;;;;;;;2.95;2.17;;;;;;;33.30;28.64;100358.84;5051662;28;20025;-76
2023/06/03 06:54:44;;;;;;;4.78;2.72;;;;;;;33.53;28.01;100360.16;5051648;28;20036;-76
2023/06/03 06:57:10;;;;;;;2.75;2.00;;;;;;;33.94;27.45;100355.66;5051778;28;20025;-76
2023/06/03 06:59:35;;;;;;;2.30;1.92;;;;;;;34.12;27.92;100345.09;5051426;28;20104;-76
2023/06/03 07:02:00;;;;;;;3.65;2.25;;;;;;;34.78;27.13;100356.88;5051588;28;20028;-76
2023/06/03 07:04:26;;;;;;;2.95;2.30;;;;;;;34.89;26.58;100337.25;5051563;28;20029;-76
2023/06/03 07:06:51;;;;;;;4.32;1.92;;;;;;;34.94;26.29;100356.41;5051271;28;20025;-76
2023/06/03 07:09:17;;;;;;;3.95;1.98;;;;;;;34.45;26.89;100360.47;5051488;28;20041;-76
2023/06/03 07:11:44;;;;;;;3.42;2.05;;;;;;;34.32;26.73;100345.06;5051240;28;20021;-76
2023/06/03 07:14:10;;;;;;;2.22;2.03;;;;;;;33.88;26.26;100345.66;5051503;28;20112;-76
2023/06/03 07:16:35;;;;;;;1.92;1.70;;;;;;;33.90;26.80;100359.81;5051496;28;20113;-76
2023/06/03 07:19:02;;;;;;;3.25;1.90;;;;;;;34.22;25.99;100355.50;5051512;28;20040;-76
2023/06/03 07:21:28;;;;;;;2.03;1.55;;;;;;;34.21;24.84;100356.50;5051290;28;20064;-76
2023/06/03 07:23:53;;;;;;;2.60;1.50;;;;;;;33.95;24.71;100368.13;5051478;28;20060;-76
2023/06/03 07:26:19;;;;;;;2.67;1.70;;;;;;;33.90;25.52;100360.66;5045908;28;20033;-75
2023/06/03 07:28:47;;;;;;;7.38;2.17;;;;;;;33.76;25.64;100369.78;5040847;28;20022;-76
2023/06/03 07:31:12;;;;;;;1.92;1.45;;;;;;;34.22;25.51;100363.63;5042143;28;20103;-76
2023/06/03 07:34:04;;;;;;;1.83;1.48;;;;;;;34.28;24.71;100370.03;5051023;28;20156;-76
2023/06/03 07:36:30;;;;;;;3.15;1.80;;;;;;;34.08;25.64;100361.94;5048657;28;20041;-76
2023/06/03 07:39:03;;;;;;;2.30;1.80;;;;;;;34.70;25.33;100347.13;5048504;28;20060;-76
2023/06/03 07:41:28;;;;;;;2.33;1.80;;;;;;;34.77;24.93;100371.47;5042545;28;20042;-76
2023/06/03 07:43:56;;;;;;;1.85;1.63;;;;;;;35.40;24.56;100353.53;5035655;28;20423;-76
2023/06/03 07:46:35;;;;;;;2.00;1.70;;;;;;;35.58;24.99;100371.78;5039194;28;20033;-76
2023/06/03 07:49:02;;;;;;;2.28;1.70;;;;;;;35.09;24.66;100375.94;5036836;28;20037;-76
2023/06/03 07:51:28;;;;;;;3.42;1.60;;;;;;;34.64;24.60;100366.88;5038949;28;20063;-76
2023/06/03 07:53:55;;;;;;;2.10;1.50;;;;;;;35.09;24.35;100377.84;5041768;28;20065;-76
2023/06/03 07:56:21;;;;;;;2.53;1.40;;;;;;;34.94;23.54;100375.38;5040588;28;20041;-76
2023/06/03 07:58:46;;;;;;;3.33;1.83;;;;;;;35.32;23.61;100371.91;5042946;28;20037;-76
2023/06/03 08:01:12;;;;;;;1.55;1.45;;;;;;;35.46;22.70;100379.75;5041491;28;20033;-76
2023/06/03 08:03:38;;;;;;;4.65;1.50;;;;;;;34.91;23.67;100373.06;5042449;28;20037;-76
2023/06/03 08:06:06;;;;;;;2.65;1.73;;;;;;;34.35;24.15;100368.19;5042478;28;20090;-76
2023/06/03 08:08:33;;;;;;;3.25;2.92;;;;;;;33.26;24.60;100380.00;5042449;28;20088;-76
2023/06/03 08:11:00;;;;;;;1.45;1.30;;;;;;;31.57;25.31;100381.78;5041903;28;20033;-76
2023/06/03 08:13:26;;;;;;;2.75;1.75;;;;;;;30.04;25.94;100376.84;5042317;28;20047;-75
2023/06/03 08:15:51;;;;;;;1.92;1.73;;;;;;;28.56;27.26;100378.47;5041724;28;20017;-75
2023/06/03 08:18:56;;;;;;;2.53;1.80;;;;;;;27.31;28.09;100378.69;5037877;28;20183;-75
2023/06/03 08:21:30;;;;;;;9.43;6.65;;;;;;;26.15;28.97;100361.22;5051415;28;20112;-75
2023/06/03 08:23:56;;;;;;;2.80;2.45;;;;;;;25.21;29.74;100373.09;5051112;28;20033;-75
2023/06/03 08:26:21;;;;;;;3.53;2.50;;;;;;;24.17;31.48;100360.72;5051247;28;20033;-75
2023/06/03 08:28:47;;;;;;;8.27;5.63;;;;;;;23.62;31.01;100370.06;5050963;28;20634;-75
2023/06/03 08:31:13;;;;;;;6.15;3.55;;;;;;;22.87;31.38;100375.81;5051193;28;20044;-75
2023/06/03 08:33:38;;;;;;;2.22;1.50;;;;;;;22.25;31.77;100385.53;5050809;28;20049;-76
2023/06/03 08:36:04;;;;;;;5.85;4.15;;;;;;;22.07;32.74;100371.09;5051394;28;20581;-75
2023/06/03 08:38:29;;;;;;;2.10;1.70;;;;;;;21.61;32.62;100391.63;5051081;28;20087;-75
2023/06/03 08:40:55;;;;;;;2.33;1.52;;;;;;;21.25;33.00;100386.59;5051031;28;20090;-75
2023/06/03 08:43:22;;;;;;;1.77;1.35;;;;;;;21.22;34.03;100390.31;5051433;28;20064;-75
2023/06/03 08:46:15;;;;;;;2.42;1.90;;;;;;;21.25;33.61;100379.50;5051132;28;20408;-75
2023/06/03 08:48:47;;;;;;;2.53;1.77;;;;;;;21.27;34.28;100380.19;5051104;28;20512;-75
2023/06/03 08:51:15;;;;;;;4.07;2.33;;;;;;;21.31;33.82;100376.34;5050944;28;20106;-75
2023/06/03 08:53:48;;;;;;;3.05;1.85;;;;;;;20.74;33.84;100379.97;5050930;28;20032;-75
2023/06/03 08:56:16;;;;;;;6.03;3.20;;;;;;;20.36;34.41;100382.88;5051107;28;20033;-75
2023/06/03 08:58:46;;;;;;;13.55;7.22;;;;;;;20.09;35.02;100359.34;5053194;28;20076;-75
2023/06/03 09:01:14;;;;;;;2.83;1.95;;;;;;;19.71;35.38;100356.88;5053299;28;20078;-76
2023/06/03 09:03:41;;;;;;;2.58;1.88;;;;;;;19.41;35.79;100379.28;5053367;28;20037;-75
2023/06/03 09:06:07;;;;;;;3.55;2.35;;;;;;;19.27;36.28;100367.06;5053276;28;20028;-75
2023/06/03 09:08:36;;;;;;;13.45;5.80;;;;;;;19.24;36.31;100369.91;5053607;28;20033;-75
2023/06/03 09:11:03;;;;;;;2.08;1.67;;;;;;;19.35;36.04;100377.09;5053210;28;20028;-75
2023/06/03 09:13:31;;;;;;;2.35;1.73;;;;;;;19.33;36.21;100357.84;5053448;28;20056;-75
2023/06/03 09:15:57;;;;;;;2.20;1.70;;;;;;;19.57;36.70;100374.56;5053062;28;20051;-75
2023/06/03 09:18:22;;;;;;;4.65;2.40;;;;;;;19.68;35.95;100374.69;5053595;28;20461;-75
2023/06/03 09:20:48;;;;;;;2.33;1.95;;;;;;;19.66;36.41;100363.34;5053292;28;20074;-75
2023/06/03 09:23:15;;;;;;;11.30;4.65;;;;;;;19.86;36.52;100367.19;5053373;28;20120;-75
2023/06/03 09:25:42;;;;;;;3.63;2.00;;;;;;;19.68;36.91;100342.97;5053018;28;20068;-75
2023/06/03 09:28:07;;;;;;;6.07;2.63;;;;;;;19.64;37.55;100362.63;5053042;28;20396;-75
2023/06/03 09:30:35;;;;;;;1.73;1.63;;;;;;;19.32;37.09;100351.72;5053291;28;20067;-75
2023/06/03 09:33:01;;;;;;;4.00;1.70;;;;;;;19.04;37.20;100334.34;5052758;28;20045;-75
2023/06/03 09:35:26;;;;;;;3.28;1.63;;;;;;;18.84;37.59;100350.78;5053023;28;20067;-75
2023/06/03 09:37:59;;;;;;;3.13;1.75;;;;;;;18.68;38.35;100327.19;5051534;28;20043;-75
2023/06/03 09:40:29;;;;;;;3.17;1.63;;;;;;;19.01;37.81;100339.03;5052284;28;20506;-75
2023/06/03 09:42:55;;;;;;;2.42;1.50;;;;;;;19.07;37.00;100338.59;5052184;28;20491;-75
2023/06/03 09:45:30;;;;;;;4.78;2.30;;;;;;;18.97;37.82;100342.84;5052329;28;20032;-75
2023/06/03 09:47:57;;;;;;;11.68;4.57;;;;;;;18.83;37.24;100320.88;5046965;28;20033;-76
2023/06/03 09:50:24;;;;;;;4.30;1.90;;;;;;;18.96;36.54;100341.97;5052523;28;20056;-75
2023/06/03 09:52:49;;;;;;;1.45;1.30;;;;;;;19.13;36.64;100336.34;5052036;28;20040;-75
2023/06/03 09:55:17;;;;;;;4.95;1.70;;;;;;;19.21;36.49;100319.94;5052281;28;20025;-75
2023/06/03 09:58:01;;;;;;;4.18;2.10;;;;;;;19.44;36.67;100352.63;5051788;28;20498;-74
2023/06/03 10:00:27;;;;;;;7.22;3.33;;;;;;;19.32;36.72;100348.25;5052196;28;20464;-76
2023/06/03 10:03:05;;;;;;;7.55;3.70;;;;;;;19.14;36.97;100353.03;5051917;28;20035;-76
2023/06/03 10:05:30;;;;;;;2.88;1.80;;;;;;;18.87;36.51;100310.94;5052183;28;20112;-76
2023/06/03 10:07:57;;;;;;;6.47;2.15;;;;;;;18.90;36.52;100326.56;5051903;28;20113;-76
2023/06/03 10:10:22;;;;;;;13.38;5.40;;;;;;;19.02;36.82;100343.34;5051929;28;20420;-75
2023/06/03 10:12:49;;;;;;;5.22;2.17;;;;;;;18.98;36.71;100315.47;5051698;28;20043;-76
2023/06/03 10:15:34;;;;;;;6.63;3.33;;;;;;;19.16;36.58;100349.31;5051628;28;20059;-76
2023/06/03 10:17:59;;;;;;;3.55;1.90;;;;;;;19.02;36.19;100331.00;5051287;28;20032;-76
2023/06/03 10:20:35;;;;;;;2.38;1.75;;;;;;;19.01;36.81;100344.31;5051913;28;20021;-87
2023/06/03 10:23:06;;;;;;;2.83;1.90;;;;;;;18.89;36.85;100335.44;5051892;28;20542;-76
2023/06/03 10:25:36;;;;;;;1.90;1.48;;;;;;;18.77;36.70;100320.47;5051958;28;20037;-75
2023/06/03 10:28:03;;;;;;;7.85;4.28;;;;;;;18.91;37.48;100313.25;5051767;28;20679;-75
2023/06/03 10:30:30;;;;;;;6.28;3.40;;;;;;;19.21;36.54;100338.44;5051881;28;20053;-76
2023/06/03 10:32:57;;;;;;;3.60;1.73;;;;;;;19.00;36.63;100319.69;5051469;28;20049;-76
2023/06/03 10:35:23;;;;;;;3.67;1.65;;;;;;;19.04;36.76;100322.94;5051472;28;20029;-76
2023/06/03 10:37:50;;;;;;;9.95;5.03;;;;;;;19.01;36.46;100331.09;5051529;28;20060;-76
2023/06/03 10:40:16;;;;;;;3.67;2.70;;;;;;;18.98;36.29;100316.31;5051580;28;20060;-76
2023/06/03 10:42:42;;;;;;;2.42;1.70;;;;;;;19.05;36.64;100308.81;5051210;28;20060;-75
2023/06/03 10:45:08;;;;;;;2.58;1.42;;;;;;;18.89;36.70;100293.22;5051170;28;20064;-75
2023/06/03 10:47:38;;;;;;;1.60;1.50;;;;;;;18.95;37.23;100285.69;5051323;28;20079;-75
2023/06/03 10:50:15;;;;;;;3.95;2.72;;;;;;;19.14;37.15;100305.50;5051333;28;20481;-75
2023/06/03 10:52:43;;;;;;;10.68;4.45;;;;;;;19.28;37.43;100315.06;5051298;28;20025;-76
2023/06/03 10:55:40;;;;;;;3.97;1.95;;;;;;;19.29;36.36;100316.75;5051130;28;20036;-76
2023/06/03 10:58:12;;;;;;;2.97;2.00;;;;;;;19.43;36.63;100308.69;5051135;28;20033;-76
2023/06/03 11:01:01;;;;;;;4.75;1.50;;;;;;;19.36;36.40;100308.28;5051788;28;20028;-76
2023/06/03 11:03:31;;;;;;;9.73;2.90;;;;;;;19.37;35.91;100307.31;5051668;28;20059;-76
2023/06/03 11:06:18;;;;;;;13.95;4.70;;;;;;;19.38;36.48;100311.66;5051137;28;20032;-76
2023/06/03 11:09:08;;;;;;;29.42;9.02;;;;;;;19.20;36.62;100305.06;5051348;28;20025;-77
2023/06/03 11:11:40;;;;;;;5.40;2.60;;;;;;;19.16;37.02;100309.72;5051606;28;20021;-76
2023/06/03 11:14:06;;;;;;;3.30;1.98;;;;;;;18.97;36.39;100277.69;5051091;28;20051;-76
2023/06/03 11:16:57;;;;;;;4.97;2.00;;;;;;;19.15;36.59;100308.03;5051297;28;20025;-76
2023/06/03 11:19:45;;;;;;;3.75;1.80;;;;;;;19.13;37.02;100282.69;5051590;28;20064;-76
2023/06/03 11:22:29;;;;;;;5.22;1.83;;;;;;;19.15;36.60;100273.72;5051261;28;20071;-76
2023/06/03 11:24:59;;;;;;;6.10;3.53;;;;;;;19.26;37.55;100301.16;5051144;28;20025;-76
2023/06/03 11:27:26;;;;;;;6.10;3.38;;;;;;;19.12;36.62;100294.19;5052126;28;20480;-76
2023/06/03 11:29:57;;;;;;;2.90;1.52;;;;;;;18.93;35.98;100286.78;5053752;28;20033;-76
2023/06/03 11:32:25;;;;;;;6.68;2.95;;;;;;;19.08;36.68;100298.84;5055228;28;20025;-76